createdAt,value
2022-08-14T00:00:03.344Z,6.85
2022-08-14T00:02:32.633Z,5.15
2022-08-14T00:05:01.965Z,5.93
2022-08-14T00:07:30.140Z,6.72
2022-08-14T00:10:49.328Z,6.32
2022-08-14T00:12:56.608Z,5.03
2022-08-14T00:15:29.939Z,5.57
2022-08-14T00:18:06.855Z,4.45
2022-08-14T00:20:42.916Z,6.60
2022-08-14T00:23:16.734Z,6.10
2022-08-14T00:25:53.808Z,5.03
2022-08-14T00:28:35.601Z,4.88
2022-08-14T00:31:05.005Z,4.13
2022-08-14T00:33:51.026Z,9.38
2022-08-14T00:36:36.737Z,4.00
2022-08-14T00:39:09.663Z,4.28
2022-08-14T00:41:40.463Z,4.82
2022-08-14T00:44:10.427Z,6.57
2022-08-14T00:46:38.781Z,5.38
2022-08-14T00:49:11.500Z,7.75
2022-08-14T00:51:45.549Z,5.72
2022-08-14T00:54:21.202Z,6.22
2022-08-14T00:56:55.382Z,5.78
2022-08-14T00:59:25.223Z,5.38
2022-08-14T01:01:57.442Z,4.53
2022-08-14T01:04:37.850Z,4.50
2022-08-14T01:07:20.756Z,6.28
2022-08-14T01:09:50.696Z,6.47
2022-08-14T01:12:27.193Z,5.63
2022-08-14T01:14:58.262Z,5.38
2022-08-14T01:17:45.942Z,4.93
2022-08-14T01:20:39.917Z,4.88
2022-08-14T01:23:16.248Z,7.45
2022-08-14T01:25:48.661Z,6.10
2022-08-14T01:28:47.400Z,7.15
2022-08-14T01:31:10.230Z,5.25
2022-08-14T01:34:00.189Z,4.80
2022-08-14T01:36:36.623Z,5.15
2022-08-14T01:39:09.735Z,5.55
2022-08-14T01:41:42.112Z,5.82
2022-08-14T01:44:31.206Z,5.28
2022-08-14T01:47:16.565Z,5.65
2022-08-14T01:49:59.994Z,5.13
2022-08-14T01:52:58.664Z,5.95
2022-08-14T01:55:24.169Z,5.70
2022-08-14T01:58:01.618Z,5.45
2022-08-14T02:00:40.439Z,5.65
2022-08-14T02:03:10.678Z,6.13
2022-08-14T02:05:39.074Z,7.40
2022-08-14T02:08:09.625Z,6.85
2022-08-14T02:10:46.371Z,5.35
2022-08-14T02:13:16.162Z,5.60
2022-08-14T02:15:45.673Z,5.53
2022-08-14T02:18:15.094Z,5.50
2022-08-14T02:20:43.459Z,5.93
2022-08-14T02:23:11.945Z,5.22
2022-08-14T02:25:41.196Z,9.27
2022-08-14T02:28:22.025Z,4.85
2022-08-14T02:30:57.159Z,5.47
2022-08-14T02:33:25.665Z,5.68
2022-08-14T02:36:05.003Z,5.78
2022-08-14T02:38:46.647Z,5.35
2022-08-14T02:41:15.904Z,6.03
2022-08-14T02:43:48.398Z,6.25
2022-08-14T02:46:20.641Z,6.32
2022-08-14T02:49:02.727Z,5.43
2022-08-14T02:51:33.408Z,5.53
2022-08-14T02:54:01.716Z,5.40
2022-08-14T02:57:15.150Z,5.60
2022-08-14T02:59:21.136Z,5.63
2022-08-14T03:01:50.660Z,5.50
2022-08-14T03:04:23.005Z,5.85
2022-08-14T03:07:06.426Z,5.70
2022-08-14T03:10:24.459Z,6.40
2022-08-14T03:12:31.382Z,6.45
2022-08-14T03:15:03.091Z,5.72
2022-08-14T03:17:41.236Z,5.93
2022-08-14T03:20:22.573Z,6.72
2022-08-14T03:22:51.384Z,6.30
2022-08-14T03:25:21.749Z,5.53
2022-08-14T03:27:58.633Z,7.75
2022-08-14T03:30:39.580Z,5.50
2022-08-14T03:33:11.414Z,5.68
2022-08-14T03:36:05.463Z,7.90
2022-08-14T03:39:15.183Z,6.32
2022-08-14T03:41:23.157Z,5.65
2022-08-14T03:44:01.148Z,6.30
2022-08-14T03:46:52.876Z,6.10
2022-08-14T03:49:28.770Z,6.35
2022-08-14T03:52:01.340Z,6.05
2022-08-14T03:54:30.052Z,7.57
2022-08-14T03:57:03.359Z,6.53
2022-08-14T03:59:34.046Z,6.25
2022-08-14T04:02:04.729Z,6.28
2022-08-14T04:04:53.429Z,6.10
2022-08-14T04:07:22.449Z,6.20
2022-08-14T04:09:50.493Z,6.43
2022-08-14T04:12:26.478Z,8.27
2022-08-14T04:14:56.571Z,7.60
2022-08-14T04:17:25.720Z,7.05
2022-08-14T04:19:54.343Z,6.65
2022-08-14T04:22:22.527Z,7.40
2022-08-14T04:24:50.561Z,6.93
2022-08-14T04:27:19.512Z,7.00
2022-08-14T04:29:47.432Z,6.88
2022-08-14T04:32:58.270Z,6.85
2022-08-14T04:35:07.208Z,6.80
2022-08-14T04:37:53.961Z,7.38
2022-08-14T04:40:40.431Z,7.65
2022-08-14T04:43:26.310Z,7.20
2022-08-14T04:46:09.313Z,7.65
2022-08-14T04:48:43.665Z,7.75
2022-08-14T04:51:21.623Z,9.68
2022-08-14T04:53:51.526Z,7.20
2022-08-14T04:56:30.695Z,8.43
2022-08-14T04:59:09.624Z,7.70
2022-08-14T05:01:39.797Z,7.93
2022-08-14T05:04:16.138Z,8.85
2022-08-14T05:06:44.473Z,7.40
2022-08-14T05:09:14.434Z,9.50
2022-08-14T05:11:44.111Z,7.60
2022-08-14T05:14:42.673Z,7.82
2022-08-14T05:17:02.398Z,7.60
2022-08-14T05:19:32.804Z,8.50
2022-08-14T05:22:17.122Z,8.35
2022-08-14T05:24:50.579Z,13.13
2022-08-14T05:27:22.604Z,8.27
2022-08-14T05:29:53.798Z,10.05
2022-08-14T05:32:27.819Z,8.73
2022-08-14T05:34:59.266Z,8.75
2022-08-14T05:37:29.662Z,8.77
2022-08-14T05:39:59.225Z,9.23
2022-08-14T05:42:34.049Z,8.68
2022-08-14T05:45:04.100Z,8.73
2022-08-14T05:47:37.681Z,8.77
2022-08-14T05:50:18.861Z,9.77
2022-08-14T05:52:50.171Z,10.32
2022-08-14T05:55:21.975Z,11.73
2022-08-14T05:57:54.650Z,9.75
2022-08-14T06:00:34.791Z,8.85
2022-08-14T06:03:08.716Z,8.52
2022-08-14T06:05:39.126Z,9.52
2022-08-14T06:08:31.267Z,10.18
2022-08-14T06:11:06.667Z,9.13
2022-08-14T06:13:44.690Z,9.85
2022-08-14T06:16:17.749Z,9.75
2022-08-14T06:18:48.640Z,9.30
2022-08-14T06:21:27.892Z,8.98
2022-08-14T06:23:57.628Z,9.43
2022-08-14T06:26:30.252Z,9.45
2022-08-14T06:28:59.962Z,10.35
2022-08-14T06:31:28.140Z,9.88
2022-08-14T06:35:10.481Z,10.93
2022-08-14T06:36:45.773Z,10.07
2022-08-14T06:39:14.496Z,10.48
2022-08-14T06:41:58.373Z,10.60
2022-08-14T06:44:30.649Z,13.25
2022-08-14T06:47:02.182Z,10.48
2022-08-14T06:49:31.069Z,11.27
2022-08-14T06:52:15.308Z,13.50
2022-08-14T06:54:44.572Z,10.18
2022-08-14T06:57:13.860Z,10.32
2022-08-14T06:59:42.711Z,10.38
2022-08-14T07:02:29.350Z,9.65
2022-08-14T07:05:21.045Z,10.10
2022-08-14T07:07:57.801Z,10.75
2022-08-14T07:10:26.961Z,10.10
2022-08-14T07:13:03.820Z,10.48
2022-08-14T07:15:39.883Z,10.93
2022-08-14T07:18:12.884Z,9.68
2022-08-14T07:20:44.827Z,10.35
2022-08-14T07:23:20.436Z,11.48
2022-08-14T07:25:51.716Z,9.25
2022-08-14T07:28:23.320Z,8.30
2022-08-14T07:30:52.324Z,9.32
2022-08-14T07:33:28.983Z,10.88
2022-08-14T07:36:00.267Z,8.50
2022-08-14T07:38:34.001Z,10.30
2022-08-14T07:41:11.993Z,10.82
2022-08-14T07:43:47.471Z,8.95
2022-08-14T07:46:29.260Z,8.73
2022-08-14T07:48:59.167Z,9.60
2022-08-14T07:51:34.481Z,9.13
2022-08-14T07:54:11.405Z,8.13
2022-08-14T07:56:46.725Z,8.82
2022-08-14T07:59:20.781Z,8.18
2022-08-14T08:02:17.268Z,8.25
2022-08-14T08:04:50.721Z,7.85
2022-08-14T08:07:23.588Z,8.55
2022-08-14T08:09:57.081Z,8.52
2022-08-14T08:12:38.710Z,8.68
2022-08-14T08:15:08.091Z,8.88
2022-08-14T08:17:53.389Z,7.78
2022-08-14T08:20:27.397Z,8.07
2022-08-14T08:23:00.551Z,8.38
2022-08-14T08:25:39.810Z,7.80
2022-08-14T08:28:19.708Z,8.80
2022-08-14T08:30:56.186Z,9.38
2022-08-14T08:33:32.283Z,7.53
2022-08-14T08:36:12.778Z,7.65
2022-08-14T08:39:15.386Z,6.75
2022-08-14T08:41:43.392Z,7.80
2022-08-14T08:44:31.155Z,6.57
2022-08-14T08:47:05.238Z,9.35
2022-08-14T08:49:48.077Z,7.65
2022-08-14T08:52:25.385Z,7.03
2022-08-14T08:55:00.783Z,7.43
2022-08-14T08:57:35.956Z,7.30
2022-08-14T09:00:25.887Z,7.05
2022-08-14T09:02:59.275Z,6.80
2022-08-14T09:05:29.221Z,7.07
2022-08-14T09:08:30.299Z,6.00
2022-08-14T09:11:00.548Z,7.75
2022-08-14T09:13:31.385Z,6.72
2022-08-14T09:16:19.034Z,5.47
2022-08-14T09:18:48.003Z,5.40
2022-08-14T09:21:16.480Z,6.28
2022-08-14T09:24:25.984Z,8.52
2022-08-14T09:26:32.535Z,5.53
2022-08-14T09:29:02.905Z,4.63
2022-08-14T09:31:43.154Z,5.55
2022-08-14T09:34:34.498Z,6.05
2022-08-14T09:37:21.863Z,5.03
2022-08-14T09:40:00.754Z,4.78
2022-08-14T09:42:49.969Z,5.32
2022-08-14T09:45:23.945Z,6.13
2022-08-14T09:47:54.745Z,5.28
2022-08-14T09:50:26.923Z,3.90
2022-08-14T09:52:59.591Z,4.43
2022-08-14T09:55:41.567Z,4.43
2022-08-14T09:58:14.771Z,4.15
2022-08-14T10:00:50.831Z,3.88
2022-08-14T10:03:33.411Z,5.03
2022-08-14T10:06:09.804Z,4.03
2022-08-14T10:08:50.822Z,4.78
2022-08-14T10:11:24.550Z,3.90
2022-08-14T10:13:58.152Z,3.70
2022-08-14T10:16:33.284Z,4.00
2022-08-14T10:19:10.011Z,5.22
2022-08-14T10:23:11.132Z,3.97
2022-08-14T10:24:31.241Z,3.40
2022-08-14T10:27:06.435Z,3.65
2022-08-14T10:29:36.130Z,5.18
2022-08-14T10:32:17.604Z,6.15
2022-08-14T10:35:13.642Z,4.50
2022-08-14T10:37:46.386Z,5.88
2022-08-14T10:40:37.862Z,6.63
2022-08-14T10:43:16.679Z,5.13
2022-08-14T10:46:03.987Z,3.80
2022-08-14T10:48:57.421Z,6.47
2022-08-14T10:51:30.315Z,3.70
2022-08-14T10:54:25.971Z,4.32
2022-08-14T10:56:57.805Z,4.13
2022-08-14T10:59:43.367Z,4.57
2022-08-14T11:02:35.939Z,4.38
2022-08-14T11:05:14.896Z,6.18
2022-08-14T11:08:00.730Z,7.05
2022-08-14T11:10:42.977Z,3.70
2022-08-14T11:13:21.324Z,3.70
2022-08-14T11:16:00.705Z,4.00
2022-08-14T11:18:35.631Z,4.35
2022-08-14T11:21:08.458Z,4.80
2022-08-14T11:23:41.204Z,4.40
2022-08-14T11:26:13.607Z,3.50
2022-08-14T11:28:47.381Z,4.55
2022-08-14T11:31:20.615Z,4.40
2022-08-14T11:33:54.135Z,3.83
2022-08-14T11:36:56.934Z,3.65
2022-08-14T11:39:22.915Z,3.92
2022-08-14T11:42:57.348Z,4.25
2022-08-14T11:44:53.503Z,3.97
2022-08-14T11:47:24.796Z,4.10
2022-08-14T11:49:54.866Z,3.60
2022-08-14T11:52:44.914Z,4.80
2022-08-14T11:55:22.369Z,4.03
2022-08-14T11:58:01.457Z,4.05
2022-08-14T12:00:31.513Z,3.90
2022-08-14T12:03:04.803Z,5.45
2022-08-14T12:05:35.926Z,3.70
2022-08-14T12:08:11.925Z,3.58
2022-08-14T12:10:44.931Z,4.63
2022-08-14T12:13:17.441Z,3.20
2022-08-14T12:15:51.396Z,3.75
2022-08-14T12:18:32.325Z,4.25
2022-08-14T12:21:11.108Z,6.20
2022-08-14T12:24:02.476Z,3.70
2022-08-14T12:26:39.592Z,2.97
2022-08-14T12:29:11.090Z,2.80
2022-08-14T12:31:46.839Z,4.32
2022-08-14T12:34:20.052Z,3.22
2022-08-14T12:36:48.435Z,5.03
2022-08-14T12:39:23.827Z,3.10
2022-08-14T12:41:57.056Z,3.20
2022-08-14T12:44:32.144Z,3.45
2022-08-14T12:47:06.622Z,2.65
2022-08-14T12:49:35.294Z,3.58
2022-08-14T12:52:17.241Z,2.70
2022-08-14T12:54:57.485Z,3.10
2022-08-14T12:57:39.298Z,3.85
2022-08-14T13:00:22.998Z,3.78
2022-08-14T13:02:55.097Z,4.72
2022-08-14T13:05:27.227Z,2.75
2022-08-14T13:07:57.177Z,2.70
2022-08-14T13:10:51.442Z,2.90
2022-08-14T13:13:21.476Z,2.83
2022-08-14T13:15:56.018Z,3.05
2022-08-14T13:18:27.815Z,8.65
2022-08-14T13:21:01.749Z,3.35
2022-08-14T13:23:36.119Z,3.60
2022-08-14T13:26:07.164Z,3.40
2022-08-14T13:29:02.045Z,2.70
2022-08-14T13:31:34.562Z,2.72
2022-08-14T13:34:14.280Z,3.10
2022-08-14T13:36:54.194Z,3.08
2022-08-14T13:39:29.631Z,3.88
2022-08-14T13:42:08.264Z,3.13
2022-08-14T13:44:37.497Z,3.25
2022-08-14T13:47:10.779Z,3.28
2022-08-14T13:49:40.419Z,4.07
2022-08-14T13:52:51.589Z,4.55
2022-08-14T13:55:19.786Z,3.30
2022-08-14T13:58:03.233Z,3.40
2022-08-14T14:00:35.394Z,4.53
2022-08-14T14:03:06.838Z,3.50
2022-08-14T14:05:52.537Z,3.10
2022-08-14T14:08:43.146Z,5.63
2022-08-14T14:11:11.267Z,3.72
2022-08-14T14:13:42.092Z,3.20
2022-08-14T14:16:15.486Z,3.58
2022-08-14T14:18:55.930Z,4.28
2022-08-14T14:21:26.619Z,3.17
2022-08-14T14:23:58.067Z,5.90
2022-08-14T14:26:28.729Z,6.20
2022-08-14T14:28:58.467Z,3.35
2022-08-14T14:31:29.692Z,6.78
2022-08-14T14:34:00.897Z,7.85
2022-08-14T14:36:36.663Z,3.90
2022-08-14T14:39:07.960Z,3.92
2022-08-14T14:41:43.540Z,4.47
2022-08-14T14:44:16.109Z,4.03
2022-08-14T14:46:50.644Z,6.47
2022-08-14T14:49:21.733Z,3.83
2022-08-14T14:51:51.571Z,3.85
2022-08-14T14:54:30.892Z,3.42
2022-08-14T14:57:02.221Z,4.13
2022-08-14T14:59:35.915Z,3.92
2022-08-14T15:02:08.131Z,5.28
2022-08-14T15:04:38.911Z,3.78
2022-08-14T15:07:12.385Z,5.57
2022-08-14T15:09:41.203Z,4.75
2022-08-14T15:12:27.912Z,4.28
2022-08-14T15:15:08.478Z,3.88
2022-08-14T15:17:41.056Z,4.07
2022-08-14T15:20:17.356Z,4.38
2022-08-14T15:23:00.742Z,4.45
2022-08-14T15:25:31.814Z,3.97
2022-08-14T15:28:00.779Z,3.58
2022-08-14T15:30:44.225Z,4.32
2022-08-14T15:33:14.281Z,4.55
2022-08-14T15:35:44.880Z,4.18
2022-08-14T15:38:17.687Z,5.30
2022-08-14T15:40:51.489Z,4.30
2022-08-14T15:43:27.390Z,4.05
2022-08-14T15:46:01.025Z,4.40
2022-08-14T15:48:29.480Z,4.88
2022-08-14T15:50:58.394Z,5.07
2022-08-14T15:53:26.431Z,4.15
2022-08-14T15:55:59.784Z,5.25
2022-08-14T15:58:29.109Z,4.55
2022-08-14T16:01:26.575Z,8.05
2022-08-14T16:04:05.332Z,6.57
2022-08-14T16:06:35.802Z,5.47
2022-08-14T16:09:11.159Z,7.13
2022-08-14T16:11:43.293Z,4.80
2022-08-14T16:14:21.221Z,4.30
2022-08-14T16:16:59.860Z,4.65
2022-08-14T16:19:32.592Z,4.15
2022-08-14T16:22:57.342Z,4.40
2022-08-14T16:25:03.862Z,4.75
2022-08-14T16:27:37.207Z,4.78
2022-08-14T16:30:10.970Z,4.60
2022-08-14T16:32:55.783Z,4.28
2022-08-14T16:35:42.244Z,4.40
2022-08-14T16:38:35.736Z,7.50
2022-08-14T16:41:23.005Z,4.03
2022-08-14T16:43:59.393Z,4.05
2022-08-14T16:46:28.636Z,5.38
2022-08-14T16:48:59.164Z,4.18
2022-08-14T16:51:29.473Z,4.30
2022-08-14T16:54:00.097Z,5.60
2022-08-14T16:56:36.249Z,5.00
2022-08-14T16:59:09.240Z,4.68
2022-08-14T17:01:42.796Z,4.35
2022-08-14T17:04:24.351Z,5.65
2022-08-14T17:06:55.187Z,4.10
2022-08-14T17:09:35.375Z,4.30
2022-08-14T17:12:07.923Z,4.75
2022-08-14T17:14:54.198Z,5.28
2022-08-14T17:17:25.933Z,4.97
2022-08-14T17:20:02.074Z,6.38
2022-08-14T17:22:49.907Z,4.60
2022-08-14T17:25:22.632Z,4.57
2022-08-14T17:28:49.688Z,6.03
2022-08-14T17:31:02.624Z,4.82
2022-08-14T17:33:40.930Z,14.90
2022-08-14T17:36:21.080Z,9.52
2022-08-14T17:39:06.265Z,4.93
2022-08-14T17:41:43.957Z,5.57
2022-08-14T17:44:33.864Z,5.93
2022-08-14T17:47:14.823Z,4.50
2022-08-14T17:49:53.645Z,5.20
2022-08-14T17:52:36.091Z,5.47
2022-08-14T17:56:02.063Z,5.10
2022-08-14T17:58:20.603Z,4.97
2022-08-14T18:00:55.511Z,4.60
2022-08-14T18:03:50.730Z,5.20
2022-08-14T18:06:39.673Z,6.68
2022-08-14T18:09:00.096Z,6.97
2022-08-14T18:11:45.943Z,5.57
2022-08-14T18:14:32.685Z,5.10
2022-08-14T18:17:02.419Z,8.90
2022-08-14T18:19:34.553Z,7.38
2022-08-14T18:22:31.211Z,5.53
2022-08-14T18:24:56.879Z,6.25
2022-08-14T18:27:36.141Z,5.35
2022-08-14T18:30:33.414Z,5.07
2022-08-14T18:32:54.673Z,5.35
2022-08-14T18:35:58.257Z,6.38
2022-08-14T18:38:25.932Z,5.20
2022-08-14T18:41:37.392Z,5.65
2022-08-14T18:44:10.802Z,4.80
2022-08-14T18:47:24.351Z,5.05
2022-08-14T18:50:03.611Z,5.50
2022-08-14T18:52:54.123Z,7.13
2022-08-14T18:55:53.433Z,5.50
2022-08-14T18:58:27.683Z,8.38
2022-08-14T19:01:02.361Z,7.38
2022-08-14T19:04:01.438Z,5.53
2022-08-14T19:06:40.095Z,7.25
2022-08-14T19:09:08.850Z,5.50
2022-08-14T19:11:50.440Z,8.85
2022-08-14T19:14:47.559Z,5.40
2022-08-14T19:18:13.953Z,6.97
2022-08-14T19:20:52.662Z,6.40
2022-08-14T19:23:23.506Z,7.20
2022-08-14T19:26:35.637Z,6.22
2022-08-14T19:29:38.180Z,7.57
2022-08-14T19:32:39.662Z,5.47
2022-08-14T19:35:55.146Z,5.75
2022-08-14T19:38:48.030Z,5.70
2022-08-14T19:41:19.201Z,5.75
2022-08-14T19:43:56.569Z,5.57
2022-08-14T19:46:38.095Z,5.53
2022-08-14T19:49:08.715Z,7.57
2022-08-14T19:51:46.051Z,7.00
2022-08-14T19:54:20.619Z,5.13
2022-08-14T19:56:48.723Z,5.90
2022-08-14T19:59:19.566Z,5.95
2022-08-14T20:01:52.155Z,5.45
2022-08-14T20:04:47.761Z,5.50
2022-08-14T20:11:08.489Z,5.80
2022-08-14T20:13:00.459Z,5.53
2022-08-14T20:15:46.763Z,5.80
2022-08-14T20:18:45.889Z,5.38
2022-08-14T20:21:05.324Z,5.55
2022-08-14T20:23:38.381Z,6.30
2022-08-14T20:26:30.629Z,5.43
2022-08-14T20:29:05.391Z,5.55
2022-08-14T20:31:38.576Z,5.53
2022-08-14T20:34:19.090Z,5.78
2022-08-14T20:37:04.221Z,6.72
2022-08-14T20:39:34.469Z,5.40
2022-08-14T20:42:30.502Z,6.25
2022-08-14T20:45:23.803Z,6.07
2022-08-14T20:48:01.064Z,5.65
2022-08-14T20:50:31.994Z,5.32
2022-08-14T20:53:05.676Z,5.53
2022-08-14T20:55:41.571Z,5.85
2022-08-14T20:58:42.217Z,5.80
2022-08-14T21:01:36.154Z,5.25
2022-08-14T21:04:22.091Z,6.10
2022-08-14T21:07:25.876Z,5.38
2022-08-14T21:10:06.368Z,5.47
2022-08-14T21:12:34.798Z,7.30
2022-08-14T21:15:10.109Z,5.68
2022-08-14T21:17:43.251Z,5.75
2022-08-14T21:20:25.317Z,5.88
2022-08-14T21:22:56.630Z,6.15
2022-08-14T21:25:28.944Z,6.55
2022-08-14T21:28:00.919Z,6.43
2022-08-14T21:30:46.816Z,6.72
2022-08-14T21:33:20.585Z,6.93
2022-08-14T21:35:54.826Z,7.30
2022-08-14T21:38:33.576Z,6.35
2022-08-14T21:41:42.982Z,6.38
2022-08-14T21:44:04.122Z,5.63
2022-08-14T21:46:36.450Z,9.10
2022-08-14T21:49:17.662Z,6.45
2022-08-14T21:51:53.724Z,6.22
2022-08-14T21:54:31.895Z,6.55
2022-08-14T21:57:02.266Z,6.53
2022-08-14T21:59:32.512Z,7.35
2022-08-14T22:02:04.576Z,6.72
2022-08-14T22:04:40.345Z,6.70
2022-08-14T22:07:12.229Z,6.20
2022-08-14T22:09:42.845Z,6.57
2022-08-14T22:12:57.385Z,6.07
2022-08-14T22:15:05.580Z,6.90
2022-08-14T22:17:34.416Z,7.18
2022-08-14T22:20:07.129Z,6.40
2022-08-14T22:22:35.371Z,6.07
2022-08-14T22:25:08.600Z,6.70
2022-08-14T22:27:55.817Z,7.30
2022-08-14T22:30:25.248Z,7.38
2022-08-14T22:32:57.090Z,7.18
2022-08-14T22:35:28.546Z,6.93
2022-08-14T22:38:36.242Z,6.70
2022-08-14T22:41:02.058Z,6.78
2022-08-14T22:43:36.142Z,6.32
2022-08-14T22:46:06.349Z,8.75
2022-08-14T22:48:45.133Z,7.00
2022-08-14T22:51:17.804Z,7.22
2022-08-14T22:53:51.616Z,7.50
2022-08-14T22:56:22.236Z,6.45
2022-08-14T22:58:58.666Z,6.95
2022-08-14T23:01:57.224Z,7.20
2022-08-14T23:04:35.120Z,7.60
2022-08-14T23:07:21.982Z,7.78
2022-08-14T23:09:56.941Z,7.07
2022-08-14T23:12:29.486Z,7.00
2022-08-14T23:14:59.286Z,7.78
2022-08-14T23:17:39.597Z,7.60
2022-08-14T23:20:19.028Z,7.22
2022-08-14T23:22:52.428Z,7.55
2022-08-14T23:25:57.558Z,6.85
2022-08-14T23:28:34.615Z,6.93
2022-08-14T23:31:02.251Z,7.75
2022-08-14T23:33:34.710Z,7.32
2022-08-14T23:36:04.597Z,7.63
2022-08-14T23:38:56.154Z,7.60
2022-08-14T23:41:24.421Z,7.30
2022-08-14T23:43:55.235Z,7.93
2022-08-14T23:46:34.676Z,8.95
2022-08-14T23:49:04.129Z,9.02
2022-08-14T23:51:38.462Z,7.78
2022-08-14T23:54:48.677Z,8.18
2022-08-14T23:57:00.206Z,7.95
2022-08-14T23:59:31.907Z,7.72
